Flight Track Log - Related Links

Times and Time Zones

All times are in EDT time to prevent confusion due to time zone crossing. See the N9AP flight status page for this flight to view local times or setup timezone preferences in your user account.

Time Position Orientation Groundspeed Altitude Reporting Facility
EDT Latitude Longitude Course Direction KTS MPH feet Rate Location/Type
Fri 05:38:35 AM 43.1053 -77.6797 140° Southeast 85 98 1,100  Level Cleveland Center
Fri 05:39:30 AM 43.0839 -77.6553 128° Southeast 129 148 2,200 1,096 Climbing Cleveland Center
Fri 05:40:30 AM 43.0619 -77.6164 126° Southeast 139 160 3,200 942 Climbing Cleveland Center
Fri 05:41:31 AM 43.0358 -77.5667 125° Southeast 149 171 4,100 893 Climbing Cleveland Center
Fri 05:42:31 AM 43.0117 -77.5194 121° Southeast 151 174 5,000 843 Climbing Cleveland Center
Fri 05:43:32 AM 42.9894 -77.4694 129° Southeast 148 170 5,800 787 Climbing Cleveland Center
Fri 05:44:33 AM 42.9631 -77.4253 121° Southeast 145 167 6,600 595 Climbing Cleveland Center
Fri 05:45:33 AM 42.9408 -77.3756 124° Southeast 159 183 7,000 198 Climbing Cleveland Center
Fri 05:46:34 AM 42.9122 -77.3175 127° Southeast 178 205 7,000 -50 Level Cleveland Center
Fri 05:47:34 AM 42.8792 -77.2567 123° Southeast 195 224 6,900 -50 Descending Cleveland Center
Fri 05:48:35 AM 42.8503 -77.1958 126° Southeast 193 222 6,900  Level Cleveland Center
Fri 05:49:36 AM 42.8194 -77.1381 126° Southeast 192 221 6,900  Level Cleveland Center
Fri 05:50:36 AM 42.7864 -77.0750 128° Southeast 193 222 6,900  Level Cleveland Center
Fri 05:51:37 AM 42.7533 -77.0175 127° Southeast 193 222 6,900  Level Cleveland Center
Fri 05:52:37 AM 42.7200 -76.9569 123° Southeast 192 221 6,900 50 Level Cleveland Center
Fri 05:53:38 AM 42.6911 -76.8967 126° Southeast 191 220 7,000 49 Climbing Cleveland Center
Fri 05:54:39 AM 42.6600 -76.8392 126° Southeast 191 220 7,000 397 Level Cleveland Center
Fri 05:55:39 AM 42.6333 -76.7897 123° Southeast 162 186 7,800 793 Climbing Cleveland Center
Fri 05:56:40 AM 42.6111 -76.7433 124° Southeast 142 163 8,600 492 Climbing Cleveland Center
Fri 05:57:41 AM 42.5875 -76.6953 124° Southeast 149 171 8,800 99 Climbing New York Center
Fri 05:58:41 AM 42.5631 -76.6453 118° Southeast 160 184 8,800 50 Level New York Center
Fri 05:59:42 AM 42.5389 -76.5839 122° Southeast 175 201 8,900 50 Climbing New York Center
Fri 06:00:40 AM 42.5125 -76.5256 117° Southeast 180 207 8,900 51 Level New York Center
Fri 06:01:40 AM 42.4886 -76.4614 120° Southeast 180 207 9,000  Climbing New York Center
Fri 06:02:39 AM 42.4625 -76.4003 122° Southeast 186 214 8,900 -50 Descending New York Center
Fri 06:03:41 AM 42.4342 -76.3386 120° Southeast 186 214 8,900  Level New York Center
Fri 06:04:41 AM 42.4058 -76.2717 122° Southeast 191 220 8,900  Level New York Center
Fri 06:05:41 AM 42.3775 -76.2106 121° Southeast 191 220 8,900  Level New York Center
Fri 06:06:41 AM 42.3511 -76.1522 121° Southeast 191 220 8,900 -50 Level New York Center
Fri 06:07:42 AM 42.3228 -76.0881 125° Southeast 191 220 8,800 -51 Descending New York Center
Fri 06:08:39 AM 42.2919 -76.0294 122° Southeast 191 220 8,800  Level New York Center
Fri 06:09:40 AM 42.2633 -75.9683 127° Southeast 191 220 8,800 50 Level New York Center
Fri 06:10:40 AM 42.2325 -75.9128 125° Southeast 197 227 8,900  Climbing New York Center
Fri 06:11:41 AM 42.2017 -75.8544 127° Southeast 197 227 8,800 -49 Descending New York Center
Fri 06:12:42 AM 42.1708 -75.7989 126° Southeast 192 221 8,800  Level New York Center
Fri 06:13:40 AM 42.1439 -75.7492 125° Southeast 192 221 8,800  Level New York Center
Fri 06:14:41 AM 42.1111 -75.6853 127° Southeast 192 221 8,800  Level New York Center
Fri 06:15:41 AM 42.0781 -75.6269 126° Southeast 192 221 8,800  Level New York Center
Fri 06:16:42 AM 42.0472 -75.5689 126° Southeast 192 221 8,800  Level New York Center
Fri 06:17:40 AM 42.0161 -75.5108 129° Southeast 187 215 8,800  Level New York Center
Fri 06:18:41 AM 41.9789 -75.4494 129° Southeast 187 215 8,800  Level New York Center
Fri 06:19:40 AM 41.9458 -75.3942 126° Southeast 187 215 8,800  Level New York Center
Fri 06:20:41 AM 41.9147 -75.3364 129° Southeast 187 215 8,800  Level New York Center
Fri 06:21:42 AM 41.8833 -75.2839 129° Southeast 187 215 8,800  Level New York Center
Fri 06:22:40 AM 41.8461 -75.2231 129° Southeast 187 215 8,800  Level New York Center
Fri 06:23:40 AM 41.8128 -75.1681 127° Southeast 187 215 8,800  Level New York Center
Fri 06:24:40 AM 41.7814 -75.1131 114° Southeast 187 215 8,800  Level New York Center
Fri 06:27:02 AM 41.7325 -74.9633 114° Southeast 183 211 8,800  Level Boston Center
Fri 06:28:02 AM 41.7069 -74.8872 112° Southeast 188 216 8,800  Level Boston Center
Fri 06:29:02 AM 41.6894 -74.8281 111° Southeast 194 223 8,800 50 Level Boston Center
Fri 06:30:02 AM 41.6681 -74.7550 114° Southeast 194 223 8,900 50 Climbing Boston Center
Fri 06:31:02 AM 41.6483 -74.6961 116° Southeast 194 223 8,900  Level Boston Center
Fri 06:32:02 AM 41.6228 -74.6256 116° Southeast 194 223 8,900  Level Boston Center
Fri 06:33:02 AM 41.6008 -74.5667 116° Southeast 194 223 8,900 -50 Level Boston Center
Fri 06:34:02 AM 41.5750 -74.4964 117° Southeast 194 223 8,800 -500 Descending Boston Center
Fri 06:35:02 AM 41.5511 -74.4347 139° Southeast 201 231 7,900 -585 Descending Boston Center
Fri 06:37:17 AM 41.4500 -74.3167 132° Southeast 206 237 6,900 -444 Descending New York TRACON
Fri 06:38:11 AM 41.4167 -74.2667 135° Southeast 216 249 6,500 -400 Descending New York TRACON
Fri 06:39:17 AM 41.3667 -74.2000 132° Southeast 213 245 6,100 -450 Descending New York TRACON
Fri 06:40:11 AM 41.3333 -74.1500 143° Southeast 219 252 5,600 -556 Descending New York TRACON
Fri 06:41:05 AM 41.2833 -74.1000 143° Southeast 224 258 5,100 -842 Descending New York TRACON
Fri 06:42:05 AM 41.2333 -74.0500 132° Southeast 238 274 4,000 -895 Descending New York TRACON
Fri 06:42:59 AM 41.2000 -74.0000 124° Southeast 225 259 3,400 -526 Descending New York TRACON
Fri 06:43:59 AM 41.1667 -73.9333 124° Southeast 212 244 3,000 -368 Descending New York TRACON
Fri 06:44:53 AM 41.1333 -73.8667 131° Southeast 201 231 2,700 -421 Descending New York TRACON
Fri 06:45:53 AM 41.1000 -73.8167 114° Southeast 196 226 2,200 -368 Descending New York TRACON
Fri 06:46:47 AM 41.0833 -73.7667 114° Southeast 186 214 2,000 -222 Descending New York TRACON

Login

Don't have an account? Register now (free) for customized features, flight alerts, and more!